createdAt,value
2022-08-22T00:01:50.670Z,5.47
2022-08-22T00:02:44.326Z,4.23
2022-08-22T00:04:25.907Z,4.57
2022-08-22T00:07:00.330Z,4.53
2022-08-22T00:09:36.073Z,5.20
2022-08-22T00:12:20.687Z,4.77
2022-08-22T00:14:54.955Z,4.80
2022-08-22T00:17:40.809Z,4.50
2022-08-22T00:20:15.705Z,4.50
2022-08-22T00:22:50.069Z,4.47
2022-08-22T00:25:38.045Z,5.30
2022-08-22T00:28:11.511Z,5.77
2022-08-22T00:30:49.204Z,4.60
2022-08-22T00:33:27.968Z,5.03
2022-08-22T00:36:09.055Z,5.07
2022-08-22T00:38:42.212Z,5.67
2022-08-22T00:41:24.435Z,5.37
2022-08-22T00:44:05.449Z,5.80
2022-08-22T00:47:20.625Z,5.47
2022-08-22T00:50:18.660Z,5.30
2022-08-22T00:53:03.907Z,5.37
2022-08-22T00:55:44.949Z,5.70
2022-08-22T00:58:41.526Z,5.80
2022-08-22T01:01:13.231Z,4.67
2022-08-22T01:04:16.955Z,4.73
2022-08-22T01:06:58.819Z,5.37
2022-08-22T01:09:43.480Z,4.63
2022-08-22T01:12:34.640Z,5.43
2022-08-22T01:15:06.357Z,5.10
2022-08-22T01:17:55.553Z,5.47
2022-08-22T01:20:57.061Z,4.73
2022-08-22T01:23:45.331Z,6.03
2022-08-22T01:26:45.149Z,6.07
2022-08-22T01:29:45.412Z,4.60
2022-08-22T01:32:50.522Z,4.87
2022-08-22T01:35:46.185Z,4.87
2022-08-22T01:38:38.368Z,5.33
2022-08-22T01:41:26.865Z,5.90
2022-08-22T01:44:13.073Z,5.50
2022-08-22T01:46:55.268Z,5.83
2022-08-22T01:49:28.159Z,5.40
2022-08-22T01:52:05.470Z,5.40
2022-08-22T01:54:45.111Z,5.47
2022-08-22T01:57:14.026Z,4.97
2022-08-22T01:59:44.382Z,4.97
2022-08-22T02:02:37.926Z,5.40
2022-08-22T02:05:12.161Z,5.03
2022-08-22T02:07:49.606Z,5.07
2022-08-22T02:10:23.521Z,5.40
2022-08-22T02:13:03.397Z,6.33
2022-08-22T02:15:45.149Z,6.00
2022-08-22T02:18:19.722Z,5.80
2022-08-22T02:21:00.668Z,6.03
2022-08-22T02:23:38.007Z,5.70
2022-08-22T02:26:10.471Z,6.10
2022-08-22T02:28:56.601Z,5.90
2022-08-22T02:31:36.679Z,5.63
2022-08-22T02:34:21.321Z,6.23
2022-08-22T02:36:54.915Z,5.83
2022-08-22T02:39:36.053Z,5.53
2022-08-22T02:42:17.141Z,5.93
2022-08-22T02:45:02.365Z,5.90
2022-08-22T02:47:37.138Z,6.10
2022-08-22T02:50:14.179Z,5.40
2022-08-22T02:52:56.860Z,5.70
2022-08-22T02:55:40.151Z,5.63
2022-08-22T02:58:15.603Z,5.93
2022-08-22T03:00:48.158Z,5.87
2022-08-22T03:03:20.938Z,5.70
2022-08-22T03:06:02.047Z,6.50
2022-08-22T03:08:34.400Z,6.00
2022-08-22T03:11:15.060Z,5.83
2022-08-22T03:13:54.622Z,5.40
2022-08-22T03:16:28.922Z,5.20
2022-08-22T03:19:02.596Z,5.57
2022-08-22T03:21:36.665Z,5.67
2022-08-22T03:24:11.763Z,5.53
2022-08-22T03:26:47.316Z,6.70
2022-08-22T03:29:21.381Z,6.37
2022-08-22T03:32:10.254Z,6.33
2022-08-22T03:34:39.599Z,5.60
2022-08-22T03:37:14.299Z,5.63
2022-08-22T03:40:00.931Z,5.60
2022-08-22T03:43:08.525Z,5.50
2022-08-22T03:46:04.348Z,5.70
2022-08-22T03:48:51.084Z,5.67
2022-08-22T03:51:32.237Z,5.57
2022-08-22T03:54:30.666Z,6.10
2022-08-22T03:57:37.947Z,6.03
2022-08-22T04:00:29.868Z,5.97
2022-08-22T04:03:17.729Z,6.07
2022-08-22T04:06:11.577Z,5.77
2022-08-22T04:09:14.085Z,6.20
2022-08-22T04:12:03.679Z,6.77
2022-08-22T04:14:59.534Z,5.83
2022-08-22T04:17:53.174Z,6.77
2022-08-22T04:21:07.113Z,5.40
2022-08-22T04:24:02.372Z,5.77
2022-08-22T04:26:37.751Z,5.43
2022-08-22T04:29:09.747Z,5.97
2022-08-22T04:31:46.288Z,6.30
2022-08-22T04:34:22.063Z,6.10
2022-08-22T04:36:57.873Z,6.00
2022-08-22T04:39:34.339Z,6.27
2022-08-22T04:42:29.187Z,5.57
2022-08-22T04:45:01.901Z,5.97
2022-08-22T04:47:34.980Z,5.50
2022-08-22T04:50:15.865Z,6.00
2022-08-22T04:53:00.225Z,5.70
2022-08-22T04:55:34.908Z,6.10
2022-08-22T04:58:11.935Z,5.93
2022-08-22T05:00:56.110Z,6.77
2022-08-22T05:03:28.754Z,6.13
2022-08-22T05:06:00.176Z,6.00
2022-08-22T05:08:33.273Z,6.23
2022-08-22T05:11:03.613Z,4.77
2022-08-22T05:13:37.480Z,6.43
2022-08-22T05:16:12.719Z,7.33
2022-08-22T05:18:46.149Z,7.67
2022-08-22T05:21:18.645Z,7.70
2022-08-22T05:23:52.757Z,10.20
2022-08-22T05:26:22.074Z,7.87
2022-08-22T05:28:54.359Z,6.60
2022-08-22T05:31:26.919Z,5.83
2022-08-22T05:33:59.423Z,6.20
2022-08-22T05:36:33.438Z,5.53
2022-08-22T05:39:05.539Z,5.83
2022-08-22T05:41:37.638Z,5.17
2022-08-22T05:44:07.802Z,5.90
2022-08-22T05:46:41.610Z,5.60
2022-08-22T05:49:19.492Z,5.27
2022-08-22T05:52:03.933Z,6.30
2022-08-22T05:54:37.358Z,6.80
2022-08-22T05:57:12.686Z,6.90
2022-08-22T05:59:43.639Z,7.93
2022-08-22T06:02:19.202Z,8.50
2022-08-22T06:04:51.830Z,7.10
2022-08-22T06:07:26.748Z,7.53
2022-08-22T06:10:08.392Z,7.20
2022-08-22T06:12:43.074Z,7.40
2022-08-22T06:15:16.100Z,7.20
2022-08-22T06:17:51.126Z,7.47
2022-08-22T06:20:21.477Z,6.80
2022-08-22T06:22:55.209Z,6.37
2022-08-22T06:25:27.766Z,6.70
2022-08-22T06:27:57.498Z,7.40
2022-08-22T06:30:29.170Z,6.97
2022-08-22T06:33:02.594Z,6.70
2022-08-22T06:35:54.724Z,8.60
2022-08-22T06:38:29.683Z,7.83
2022-08-22T06:41:01.349Z,7.57
2022-08-22T06:43:37.465Z,7.47
2022-08-22T06:46:07.052Z,8.17
2022-08-22T06:48:37.229Z,7.40
2022-08-22T06:51:08.245Z,6.90
2022-08-22T06:53:48.089Z,7.20
2022-08-22T06:56:22.649Z,7.30
2022-08-22T06:58:53.504Z,7.17
2022-08-22T07:01:25.255Z,6.67
2022-08-22T07:03:55.598Z,6.77
2022-08-22T07:06:31.457Z,7.20
2022-08-22T07:09:06.754Z,6.90
2022-08-22T07:11:40.360Z,7.67
2022-08-22T07:14:12.069Z,6.30
2022-08-22T07:16:43.704Z,6.37
2022-08-22T07:19:24.283Z,6.20
2022-08-22T07:21:52.150Z,6.70
2022-08-22T07:24:25.295Z,5.83
2022-08-22T07:27:08.947Z,5.70
2022-08-22T07:29:46.693Z,6.70
2022-08-22T07:32:19.566Z,6.97
2022-08-22T07:35:07.706Z,6.63
2022-08-22T07:37:56.302Z,6.50
2022-08-22T07:40:32.601Z,6.30
2022-08-22T07:43:05.961Z,5.10
2022-08-22T07:45:38.131Z,5.73
2022-08-22T07:48:25.139Z,6.13
2022-08-22T07:51:06.075Z,5.70
2022-08-22T07:53:43.368Z,5.93
2022-08-22T07:56:16.598Z,5.07
2022-08-22T07:58:47.054Z,5.67
2022-08-22T08:01:18.764Z,5.00
2022-08-22T08:03:53.373Z,4.20
2022-08-22T08:06:24.175Z,5.30
2022-08-22T08:08:53.862Z,5.10
2022-08-22T08:11:25.085Z,4.77
2022-08-22T08:13:55.924Z,4.40
2022-08-22T08:16:28.123Z,4.27
2022-08-22T08:18:59.387Z,3.70
2022-08-22T08:21:31.652Z,3.63
2022-08-22T08:24:01.929Z,3.03
2022-08-22T08:26:35.251Z,3.70
2022-08-22T08:29:03.998Z,3.47
2022-08-22T08:31:35.377Z,3.67
2022-08-22T08:34:07.408Z,3.70
2022-08-22T08:36:40.214Z,4.00
2022-08-22T08:39:19.573Z,3.70
2022-08-22T08:42:20.062Z,3.30
2022-08-22T08:45:07.482Z,3.20
2022-08-22T08:47:54.171Z,3.43
2022-08-22T08:51:02.297Z,3.73
2022-08-22T08:54:05.068Z,3.10
2022-08-22T08:56:39.346Z,3.40
2022-08-22T08:59:28.134Z,3.47
2022-08-22T09:02:24.949Z,3.40
2022-08-22T09:05:25.700Z,3.70
2022-08-22T09:08:24.616Z,3.90
2022-08-22T09:11:38.546Z,3.40
2022-08-22T09:14:26.931Z,4.00
2022-08-22T09:17:21.218Z,3.30
2022-08-22T09:20:19.391Z,3.50
2022-08-22T09:23:35.910Z,3.23
2022-08-22T09:26:09.778Z,3.67
2022-08-22T09:28:42.573Z,3.63
2022-08-22T09:31:51.425Z,4.33
2022-08-22T09:34:27.403Z,4.10
2022-08-22T09:37:13.923Z,3.50
2022-08-22T09:39:53.540Z,3.37
2022-08-22T09:42:31.630Z,4.10
2022-08-22T09:45:35.639Z,3.13
2022-08-22T09:48:13.415Z,3.87
2022-08-22T09:50:54.578Z,3.27
2022-08-22T09:53:43.153Z,3.60
2022-08-22T09:56:19.766Z,2.97
2022-08-22T09:58:58.872Z,2.73
2022-08-22T10:01:32.634Z,3.47
2022-08-22T10:04:42.020Z,3.10
2022-08-22T10:07:30.004Z,2.60
2022-08-22T10:10:06.957Z,3.20
2022-08-22T10:12:45.129Z,3.97
2022-08-22T10:15:22.303Z,3.40
2022-08-22T10:18:06.596Z,2.90
2022-08-22T10:20:52.173Z,3.00
2022-08-22T10:23:25.123Z,3.10
2022-08-22T10:26:00.549Z,2.70
2022-08-22T10:28:39.899Z,2.47
2022-08-22T10:31:24.838Z,2.70
2022-08-22T10:34:01.734Z,2.80
2022-08-22T10:36:36.136Z,2.43
2022-08-22T10:39:11.796Z,2.80
2022-08-22T10:41:59.095Z,2.63
2022-08-22T10:44:36.462Z,2.37
2022-08-22T10:47:09.214Z,2.77
2022-08-22T10:49:42.681Z,2.60
2022-08-22T10:52:16.365Z,2.70
2022-08-22T10:54:51.283Z,2.87
2022-08-22T10:57:32.305Z,2.80
2022-08-22T11:00:09.715Z,2.47
2022-08-22T11:02:46.300Z,2.60
2022-08-22T11:05:33.079Z,2.60
2022-08-22T11:08:22.907Z,2.20
2022-08-22T11:11:07.846Z,2.80
2022-08-22T11:13:42.337Z,2.70
2022-08-22T11:16:28.593Z,2.80
2022-08-22T11:19:16.488Z,2.60
2022-08-22T11:21:51.691Z,2.60
2022-08-22T11:24:55.899Z,2.37
2022-08-22T11:27:38.232Z,2.40
2022-08-22T11:30:18.206Z,2.40
2022-08-22T11:33:13.769Z,2.20
2022-08-22T11:35:46.155Z,2.00
2022-08-22T11:38:32.099Z,2.70
2022-08-22T11:41:09.342Z,2.60
2022-08-22T11:43:49.819Z,2.50
2022-08-22T11:46:25.991Z,2.77
2022-08-22T11:49:35.148Z,2.60
2022-08-22T11:52:16.560Z,2.47
2022-08-22T11:55:01.017Z,2.47
2022-08-22T11:57:36.162Z,2.43
2022-08-22T12:00:16.834Z,2.20
2022-08-22T12:03:25.800Z,2.57
2022-08-22T12:05:59.132Z,2.40
2022-08-22T12:08:57.348Z,2.30
2022-08-22T12:11:34.608Z,3.07
2022-08-22T12:14:08.241Z,2.40
2022-08-22T12:16:45.002Z,2.60
2022-08-22T12:19:23.270Z,2.30
2022-08-22T12:22:08.507Z,2.07
2022-08-22T12:24:50.402Z,2.40
2022-08-22T12:27:48.165Z,2.50
2022-08-22T12:30:27.245Z,3.00
2022-08-22T12:33:22.877Z,2.80
2022-08-22T12:36:01.041Z,2.90
2022-08-22T12:38:49.344Z,2.57
2022-08-22T12:42:00.131Z,2.77
2022-08-22T12:44:39.112Z,2.40
2022-08-22T12:47:23.745Z,2.70
2022-08-22T12:50:13.093Z,1.90
2022-08-22T12:53:06.250Z,2.40
2022-08-22T12:55:46.668Z,1.93
2022-08-22T12:58:31.710Z,2.30
2022-08-22T13:01:06.516Z,2.40
2022-08-22T13:03:41.236Z,2.10
2022-08-22T13:06:48.672Z,2.23
2022-08-22T13:09:28.894Z,2.20
2022-08-22T13:12:04.710Z,2.27
2022-08-22T13:14:34.861Z,2.20
2022-08-22T13:17:23.672Z,2.30
2022-08-22T13:20:09.474Z,2.60
2022-08-22T13:22:45.050Z,2.00
2022-08-22T13:25:26.241Z,2.60
2022-08-22T13:27:59.102Z,2.50
2022-08-22T13:30:32.241Z,2.40
2022-08-22T13:33:08.778Z,2.80
2022-08-22T13:35:44.772Z,2.40
2022-08-22T13:38:25.826Z,2.23
2022-08-22T13:40:57.157Z,2.03
2022-08-22T13:43:28.008Z,2.60
2022-08-22T13:45:59.292Z,2.90
2022-08-22T13:48:45.007Z,2.30
2022-08-22T13:51:22.759Z,1.93
2022-08-22T13:54:01.848Z,1.60
2022-08-22T13:56:38.790Z,2.10
2022-08-22T13:59:40.417Z,2.40
2022-08-22T14:02:17.824Z,2.00
2022-08-22T14:04:48.474Z,2.33
2022-08-22T14:07:32.321Z,2.53
2022-08-22T14:10:06.389Z,2.37
2022-08-22T14:13:07.002Z,2.60
2022-08-22T14:15:45.045Z,2.10
2022-08-22T14:18:17.707Z,1.93
2022-08-22T14:20:48.227Z,2.50
2022-08-22T14:23:29.193Z,2.27
2022-08-22T14:25:58.451Z,1.80
2022-08-22T14:28:29.571Z,2.00
2022-08-22T14:31:02.525Z,2.37
2022-08-22T14:33:39.885Z,2.73
2022-08-22T14:36:17.400Z,2.10
2022-08-22T14:38:53.336Z,2.73
2022-08-22T14:41:52.771Z,2.30
2022-08-22T14:44:23.385Z,2.60
2022-08-22T14:46:55.271Z,1.80
2022-08-22T14:49:36.074Z,2.37
2022-08-22T14:52:09.407Z,2.30
2022-08-22T14:54:39.333Z,1.93
2022-08-22T14:57:20.010Z,2.30
2022-08-22T14:59:52.335Z,2.20
2022-08-22T15:02:27.605Z,1.90
2022-08-22T15:04:57.074Z,2.20
2022-08-22T15:07:29.219Z,2.27
2022-08-22T15:10:06.425Z,2.40
2022-08-22T15:12:38.378Z,2.23
2022-08-22T15:15:11.283Z,2.30
2022-08-22T15:17:44.131Z,2.20
2022-08-22T15:20:27.773Z,2.20
2022-08-22T15:22:59.379Z,2.53
2022-08-22T15:25:34.109Z,1.83
2022-08-22T15:28:14.018Z,1.90
2022-08-22T15:30:45.787Z,2.30
2022-08-22T15:33:22.319Z,1.97
2022-08-22T15:35:53.495Z,2.30
2022-08-22T15:38:28.574Z,2.00
2022-08-22T15:41:32.167Z,2.03
2022-08-22T15:44:14.791Z,2.20
2022-08-22T15:47:25.513Z,1.50
2022-08-22T15:50:01.035Z,2.70
2022-08-22T15:52:32.185Z,2.07
2022-08-22T15:55:25.245Z,2.10
2022-08-22T15:58:07.258Z,2.33
2022-08-22T16:00:43.715Z,2.33
2022-08-22T16:03:24.405Z,2.10
2022-08-22T16:05:55.971Z,1.93
2022-08-22T16:08:28.150Z,2.73
2022-08-22T16:11:22.699Z,2.30
2022-08-22T16:14:21.424Z,2.23
2022-08-22T16:17:03.504Z,2.30
2022-08-22T16:19:33.995Z,2.07
2022-08-22T16:22:10.755Z,2.90
2022-08-22T16:25:01.458Z,2.63
2022-08-22T16:27:30.365Z,1.90
2022-08-22T16:30:10.367Z,2.53
2022-08-22T16:32:39.305Z,2.03
2022-08-22T16:35:07.427Z,2.10
2022-08-22T16:37:49.240Z,2.13
2022-08-22T16:40:23.172Z,2.00
2022-08-22T16:43:10.838Z,1.80
2022-08-22T16:45:45.294Z,2.30
2022-08-22T16:48:33.267Z,2.40
2022-08-22T16:51:13.833Z,2.30
2022-08-22T16:54:11.335Z,2.63
2022-08-22T16:57:00.009Z,2.10
2022-08-22T16:59:57.106Z,2.10
2022-08-22T17:02:52.463Z,1.80
2022-08-22T17:05:38.220Z,2.20
2022-08-22T17:08:27.440Z,2.37
2022-08-22T17:11:15.095Z,2.67
2022-08-22T17:14:03.900Z,1.97
2022-08-22T17:16:54.219Z,2.17
2022-08-22T17:19:39.589Z,2.53
2022-08-22T17:22:13.536Z,2.10
2022-08-22T17:24:46.149Z,1.70
2022-08-22T17:27:24.534Z,1.83
2022-08-22T17:30:02.036Z,1.73
2022-08-22T17:32:38.562Z,2.60
2022-08-22T17:35:17.864Z,1.83
2022-08-22T17:37:56.010Z,2.00
2022-08-22T17:40:37.568Z,1.90
2022-08-22T17:43:23.697Z,2.03
2022-08-22T17:46:03.181Z,1.73
2022-08-22T17:48:39.859Z,2.40
2022-08-22T17:51:28.272Z,2.20
2022-08-22T17:54:02.233Z,2.10
2022-08-22T17:56:40.364Z,2.10
2022-08-22T17:59:14.678Z,1.83
2022-08-22T18:01:54.780Z,2.37
2022-08-22T18:04:28.789Z,2.30
2022-08-22T18:07:19.588Z,1.83
2022-08-22T18:09:52.909Z,2.07
2022-08-22T18:12:30.085Z,2.13
2022-08-22T18:15:06.644Z,2.47
2022-08-22T18:17:39.660Z,2.10
2022-08-22T18:20:12.529Z,1.97
2022-08-22T18:22:49.492Z,2.10
2022-08-22T18:25:42.383Z,2.30
2022-08-22T18:28:22.600Z,2.53
2022-08-22T18:30:59.416Z,2.37
2022-08-22T18:33:33.473Z,2.20
2022-08-22T18:36:09.835Z,2.27
2022-08-22T18:38:48.034Z,2.40
2022-08-22T18:41:23.057Z,2.63
2022-08-22T18:43:54.518Z,2.53
2022-08-22T18:46:44.811Z,2.20
2022-08-22T18:49:45.599Z,2.10
2022-08-22T18:52:31.649Z,2.20
2022-08-22T18:55:40.787Z,2.20
2022-08-22T18:58:38.395Z,2.10
2022-08-22T19:01:31.038Z,2.87
2022-08-22T19:04:21.886Z,2.60
2022-08-22T19:07:17.436Z,2.47
2022-08-22T19:10:20.761Z,1.93
2022-08-22T19:13:03.312Z,2.10
2022-08-22T19:15:42.100Z,2.40
2022-08-22T19:18:26.887Z,2.43
2022-08-22T19:21:43.324Z,2.97
2022-08-22T19:24:29.579Z,2.50
2022-08-22T19:27:31.418Z,2.80
2022-08-22T19:30:07.512Z,2.60
2022-08-22T19:33:00.488Z,2.47
2022-08-22T19:35:38.558Z,2.40
2022-08-22T19:38:08.950Z,2.17
2022-08-22T19:40:55.470Z,2.40
2022-08-22T19:43:36.668Z,2.60
2022-08-22T19:46:08.550Z,2.30
2022-08-22T19:48:46.703Z,2.47
2022-08-22T19:51:28.707Z,2.63
2022-08-22T19:54:16.421Z,2.13
2022-08-22T19:57:05.511Z,2.00
2022-08-22T19:59:50.871Z,2.17
2022-08-22T20:02:33.340Z,2.50
2022-08-22T20:05:21.344Z,2.97
2022-08-22T20:08:12.399Z,2.30
2022-08-22T20:10:58.619Z,2.63
2022-08-22T20:13:29.227Z,2.40
2022-08-22T20:16:16.045Z,2.33
2022-08-22T20:19:17.928Z,2.37
2022-08-22T20:21:58.672Z,2.73
2022-08-22T20:24:39.807Z,2.77
2022-08-22T20:27:15.373Z,2.43
2022-08-22T20:29:49.271Z,3.00
2022-08-22T20:32:19.830Z,3.13
2022-08-22T20:34:55.177Z,3.03
2022-08-22T20:37:44.962Z,2.30
2022-08-22T20:40:53.356Z,2.50
2022-08-22T20:43:17.603Z,2.40
2022-08-22T20:46:02.969Z,2.47
2022-08-22T20:48:37.305Z,2.73
2022-08-22T20:51:09.269Z,2.63
2022-08-22T20:53:37.757Z,2.53
2022-08-22T20:56:08.095Z,2.27
2022-08-22T20:58:39.653Z,2.70
2022-08-22T21:01:11.331Z,2.93
2022-08-22T21:03:43.809Z,2.63
2022-08-22T21:06:15.897Z,3.03
2022-08-22T21:08:45.384Z,2.43
2022-08-22T21:11:40.212Z,2.70
2022-08-22T21:14:19.796Z,3.00
2022-08-22T21:16:47.765Z,2.83
2022-08-22T21:19:21.220Z,2.87
2022-08-22T21:21:50.439Z,2.97
2022-08-22T21:24:18.651Z,3.03
2022-08-22T21:26:51.016Z,2.80
2022-08-22T21:29:26.999Z,2.57
2022-08-22T21:32:12.214Z,2.87
2022-08-22T21:34:46.150Z,2.70
2022-08-22T21:37:17.676Z,2.80
2022-08-22T21:39:48.748Z,2.40
2022-08-22T21:42:25.534Z,2.97
2022-08-22T21:44:58.497Z,2.60
2022-08-22T21:47:33.146Z,3.13
2022-08-22T21:50:06.011Z,2.97
2022-08-22T21:52:36.887Z,2.57
2022-08-22T21:55:16.706Z,2.60
2022-08-22T21:57:45.146Z,2.90
2022-08-22T22:00:48.858Z,2.60
2022-08-22T22:03:19.839Z,3.20
2022-08-22T22:05:49.207Z,2.70
2022-08-22T22:08:20.039Z,2.90
2022-08-22T22:10:50.930Z,2.30
2022-08-22T22:13:23.895Z,3.00
2022-08-22T22:15:58.399Z,2.60
2022-08-22T22:18:33.948Z,2.80
2022-08-22T22:21:03.308Z,2.80
2022-08-22T22:23:36.827Z,2.90
2022-08-22T22:26:10.244Z,3.30
2022-08-22T22:28:43.128Z,3.50
2022-08-22T22:31:12.158Z,2.67
2022-08-22T22:33:43.878Z,2.80
2022-08-22T22:36:19.217Z,2.70
2022-08-22T22:38:54.156Z,2.70
2022-08-22T22:41:32.130Z,2.63
2022-08-22T22:44:04.892Z,2.97
2022-08-22T22:46:33.989Z,3.07
2022-08-22T22:49:06.101Z,2.80
2022-08-22T22:51:37.034Z,3.67
2022-08-22T22:54:08.555Z,3.20
2022-08-22T22:56:40.035Z,3.17
2022-08-22T22:59:13.197Z,3.47
2022-08-22T23:02:04.646Z,3.30
2022-08-22T23:04:34.924Z,2.90
2022-08-22T23:07:04.474Z,3.47
2022-08-22T23:09:38.566Z,3.10
2022-08-22T23:12:14.344Z,3.27
2022-08-22T23:14:45.725Z,2.93
2022-08-22T23:17:14.889Z,3.07
2022-08-22T23:19:46.311Z,3.00
2022-08-22T23:22:22.437Z,3.73
2022-08-22T23:24:52.513Z,3.30
2022-08-22T23:27:24.136Z,2.90
2022-08-22T23:29:54.412Z,3.37
2022-08-22T23:32:23.591Z,3.27
2022-08-22T23:34:58.109Z,3.30
2022-08-22T23:37:26.999Z,3.70
2022-08-22T23:39:58.573Z,3.40
2022-08-22T23:42:29.284Z,4.20
2022-08-22T23:44:59.089Z,3.00
2022-08-22T23:47:28.102Z,3.40
2022-08-22T23:50:05.725Z,3.40
2022-08-22T23:52:36.315Z,3.27
2022-08-22T23:55:07.656Z,3.00
2022-08-22T23:57:36.945Z,3.50
